Les Alyzees — FI8710 — position and weather

sailwx.info

Track history (hours):
 
Tides and Currents Weather Stations Pressure Air Temp Water Temp Dewpoint Dewpoint Depression Visibility Wind Speed Wind Dir Waves Ship Positions

Les Alyzees

Last reported at 2018-May-22 10:45 UTC. Time now 2018-May-22 17:58 UTC.
Position N 48°45' W 002°29'.

Length 15 m.

Type: Fishing. MMSI: 227323270.

Date/timePositionNaut miles runAvg speedWind from/ knotsBaromVisibWave heightAir tempDewpointWater temp
2018-May-22 10:45N 48°45' W 002°29'3 9.0
2018-May-22 10:28N 48°47' W 002°28'2 1.3
2018-May-22 09:15N 48°47' W 002°31'1 2.9
2018-May-22 08:46N 48°47' W 002°29'3 1.6
2018-May-22 07:12N 48°46' W 002°25'0 1.3
2018-May-22 07:00N 48°46' W 002°24'3 2.1
2018-May-22 05:40N 48°45' W 002°29'1 1.3
2018-May-22 04:46N 48°45' W 002°30'1 3.1
2018-May-22 04:30N 48°44' W 002°30'  
2018-May-18 11:54N 48°38' W 002°29'4 9.1
2018-May-18 11:30N 48°41' W 002°31'3 5.1
2018-May-18 10:55N 48°44' W 002°29'1 1.3
2018-May-18 10:28N 48°44' W 002°30'1 1.3
2018-May-18 10:00N 48°45' W 002°30'1 1.4
2018-May-18 09:30N 48°45' W 002°30'1 1.2
2018-May-18 08:49N 48°45' W 002°29'1 2.4
2018-May-18 08:21N 48°45' W 002°27'1 1.4
2018-May-18 07:59N 48°45' W 002°26'1 2.9
2018-May-18 07:30N 48°47' W 002°27'1 1.1
2018-May-18 06:51N 48°46' W 002°26'1 1.6
2018-May-18 06:27N 48°46' W 002°25'0 1.0
2018-May-18 05:59N 48°46' W 002°25'3 4.6
2018-May-18 05:16N 48°43' W 002°26'3 7.9
2018-May-18 04:54N 48°40' W 002°27'2 0.1
2018-May-17 11:38N 48°38' W 002°29'0 1.5
2018-May-17 11:27N 48°38' W 002°29'4 9.1
2018-May-17 10:59N 48°42' W 002°26'5 8.7
2018-May-17 10:27N 48°46' W 002°25'1 2.1
2018-May-17 09:52N 48°46' W 002°26'0 0.8
2018-May-17 09:30N 48°45' W 002°26'1 2.1
2018-May-17 08:59N 48°45' W 002°28'1 1.0
2018-May-17 08:27N 48°45' W 002°29'1 1.2
2018-May-17 07:55N 48°45' W 002°30'0 0.8
2018-May-17 07:24N 48°45' W 002°30'1 2.1
2018-May-17 06:52N 48°44' W 002°30'1 1.0
2018-May-17 06:15N 48°44' W 002°29'2 5.3
2018-May-17 05:54N 48°42' W 002°30'6 0.3
2018-May-16 09:18N 48°46' W 002°23'2 4.6
2018-May-16 08:48N 48°49' W 002°21'12 0.5
2018-May-15 10:44N 48°38' W 002°29'0 0.0
2018-May-15 10:29N 48°38' W 002°29'2 4.7
2018-May-15 09:58N 48°40' W 002°27'5 8.9
2018-May-15 09:27N 48°45' W 002°26'2 3.9
2018-May-15 08:59N 48°47' W 002°26'0 0.8
2018-May-15 08:28N 48°47' W 002°26'1 1.2
2018-May-15 08:00N 48°46' W 002°27'1 1.5
2018-May-15 07:06N 48°45' W 002°27'1 3.7
2018-May-15 06:57N 48°45' W 002°28'1 0.9
2018-May-15 06:16N 48°45' W 002°29'0 1.7
2018-May-15 06:00N 48°45' W 002°29'0 0.8
2018-May-15 05:30N 48°45' W 002°30'1 1.8
2018-May-15 04:57N 48°44' W 002°30'1 1.1
2018-May-15 04:24N 48°44' W 002°29'2 4.6
2018-May-15 04:00N 48°42' W 002°30'4 0.2
2018-May-14 10:13N 48°38' W 002°30'310.6
2018-May-14 09:58N 48°41' W 002°27'5 9.1
2018-May-14 09:28N 48°45' W 002°27'2 2.0
2018-May-14 08:42N 48°47' W 002°26'2 0.9
2018-May-14 06:52N 48°45' W 002°27'1 1.7
2018-May-14 06:29N 48°45' W 002°28'1 1.7
2018-May-14 06:00N 48°45' W 002°29'1 0.7
2018-May-14 04:52N 48°44' W 002°30'1 0.9
2018-May-14 03:55N 48°44' W 002°29'2 5.0
2018-May-14 03:30N 48°42' W 002°30'4 7.0
2018-May-14 02:59N 48°39' W 002°30'  
Track history (hours):
 
Tides and Currents Weather Stations Pressure Air Temp Water Temp Dewpoint Dewpoint Depression Visibility Wind Speed Wind Dir Waves Ship Positions

Les Alyzees

Last reported at 2018-May-22 10:45 UTC. Time now 2018-May-22 17:58 UTC.
Position N 48°45' W 002°29'.

Length 15 m.

Type: Fishing. MMSI: 227323270.

Date/timePositionNaut miles runAvg speedWind from/ knotsBaromVisibWave heightAir tempDewpointWater temp
2018-May-22 10:45N 48°45' W 002°29'3 9.0
2018-May-22 10:28N 48°47' W 002°28'2 1.3
2018-May-22 09:15N 48°47' W 002°31'1 2.9
2018-May-22 08:46N 48°47' W 002°29'3 1.6
2018-May-22 07:12N 48°46' W 002°25'0 1.3
2018-May-22 07:00N 48°46' W 002°24'3 2.1
2018-May-22 05:40N 48°45' W 002°29'1 1.3
2018-May-22 04:46N 48°45' W 002°30'1 3.1
2018-May-22 04:30N 48°44' W 002°30'  
2018-May-18 11:54N 48°38' W 002°29'4 9.1
2018-May-18 11:30N 48°41' W 002°31'3 5.1
2018-May-18 10:55N 48°44' W 002°29'1 1.3
2018-May-18 10:28N 48°44' W 002°30'1 1.3
2018-May-18 10:00N 48°45' W 002°30'1 1.4
2018-May-18 09:30N 48°45' W 002°30'1 1.2
2018-May-18 08:49N 48°45' W 002°29'1 2.4
2018-May-18 08:21N 48°45' W 002°27'1 1.4
2018-May-18 07:59N 48°45' W 002°26'1 2.9
2018-May-18 07:30N 48°47' W 002°27'1 1.1
2018-May-18 06:51N 48°46' W 002°26'1 1.6
2018-May-18 06:27N 48°46' W 002°25'0 1.0
2018-May-18 05:59N 48°46' W 002°25'3 4.6
2018-May-18 05:16N 48°43' W 002°26'3 7.9
2018-May-18 04:54N 48°40' W 002°27'2 0.1
2018-May-17 11:38N 48°38' W 002°29'0 1.5
2018-May-17 11:27N 48°38' W 002°29'4 9.1
2018-May-17 10:59N 48°42' W 002°26'5 8.7
2018-May-17 10:27N 48°46' W 002°25'1 2.1
2018-May-17 09:52N 48°46' W 002°26'0 0.8
2018-May-17 09:30N 48°45' W 002°26'1 2.1
2018-May-17 08:59N 48°45' W 002°28'1 1.0
2018-May-17 08:27N 48°45' W 002°29'1 1.2
2018-May-17 07:55N 48°45' W 002°30'0 0.8
2018-May-17 07:24N 48°45' W 002°30'1 2.1
2018-May-17 06:52N 48°44' W 002°30'1 1.0
2018-May-17 06:15N 48°44' W 002°29'2 5.3
2018-May-17 05:54N 48°42' W 002°30'6 0.3
2018-May-16 09:18N 48°46' W 002°23'2 4.6
2018-May-16 08:48N 48°49' W 002°21'12 0.5
2018-May-15 10:44N 48°38' W 002°29'0 0.0
2018-May-15 10:29N 48°38' W 002°29'2 4.7
2018-May-15 09:58N 48°40' W 002°27'5 8.9
2018-May-15 09:27N 48°45' W 002°26'2 3.9
2018-May-15 08:59N 48°47' W 002°26'0 0.8
2018-May-15 08:28N 48°47' W 002°26'1 1.2
2018-May-15 08:00N 48°46' W 002°27'1 1.5
2018-May-15 07:06N 48°45' W 002°27'1 3.7
2018-May-15 06:57N 48°45' W 002°28'1 0.9
2018-May-15 06:16N 48°45' W 002°29'0 1.7
2018-May-15 06:00N 48°45' W 002°29'0 0.8
2018-May-15 05:30N 48°45' W 002°30'1 1.8
2018-May-15 04:57N 48°44' W 002°30'1 1.1
2018-May-15 04:24N 48°44' W 002°29'2 4.6
2018-May-15 04:00N 48°42' W 002°30'4 0.2
2018-May-14 10:13N 48°38' W 002°30'310.6
2018-May-14 09:58N 48°41' W 002°27'5 9.1
2018-May-14 09:28N 48°45' W 002°27'2 2.0
2018-May-14 08:42N 48°47' W 002°26'2 0.9
2018-May-14 06:52N 48°45' W 002°27'1 1.7
2018-May-14 06:29N 48°45' W 002°28'1 1.7
2018-May-14 06:00N 48°45' W 002°29'1 0.7
2018-May-14 04:52N 48°44' W 002°30'1 0.9
2018-May-14 03:55N 48°44' W 002°29'2 5.0
2018-May-14 03:30N 48°42' W 002°30'4 7.0
2018-May-14 02:59N 48°39' W 002°30'  

Dump ship's entire track history